Time;durP1;ratioP1;P1;durP2;ratioP2;P2;SDS_P1;SDS_P2;PMS_P1;PMS_P2;Temp;Humidity;BMP_temperature;BMP_pressure;BME280_temperature;BME280_humidity;BME280_pressure;Samples;Min_cycle;Max_cycle;Signal;HPM_P1;HPM_P2
2022/10/23 00:01:13;;;;;;;32.33;20.20;;;;;;;12.30;73.94;99869.50;5074326;28;20280;-68
2022/10/23 00:03:40;;;;;;;30.70;20.47;;;;;;;12.30;74.43;99870.31;5074873;28;20269;-69
2022/10/23 00:06:08;;;;;;;31.20;19.80;;;;;;;12.27;74.47;99868.03;5074022;28;20199;-68
2022/10/23 00:08:35;;;;;;;34.50;20.57;;;;;;;12.28;74.60;99860.84;5073702;28;20623;-68
2022/10/23 00:11:06;;;;;;;33.20;20.67;;;;;;;12.20;74.58;99864.53;5073582;28;20287;-68
2022/10/23 00:13:33;;;;;;;30.77;20.63;;;;;;;12.24;75.04;99855.13;5074778;28;20256;-68
2022/10/23 00:16:00;;;;;;;27.20;19.60;;;;;;;12.27;74.88;99848.56;5073499;28;20195;-68
2022/10/23 00:18:26;;;;;;;26.53;19.97;;;;;;;12.22;74.69;99841.19;5073498;28;20255;-68
2022/10/23 00:20:53;;;;;;;26.17;19.27;;;;;;;12.15;74.74;99835.00;5073752;28;20217;-68
2022/10/23 00:23:21;;;;;;;31.87;20.07;;;;;;;12.14;74.88;99827.22;5073713;28;20257;-68
2022/10/23 00:25:48;;;;;;;32.03;19.57;;;;;;;12.07;75.22;99827.19;5073606;28;20269;-68
2022/10/23 00:28:14;;;;;;;28.87;19.13;;;;;;;12.12;75.42;99827.41;5073543;28;20199;-68
2022/10/23 00:30:41;;;;;;;34.07;18.27;;;;;;;12.16;74.99;99820.66;5073410;28;20257;-68
2022/10/23 00:33:09;;;;;;;28.37;19.57;;;;;;;12.19;75.15;99827.44;5073436;28;20194;-67
2022/10/23 00:35:38;;;;;;;31.67;19.93;;;;;;;12.16;75.08;99822.53;5073473;28;20284;-69
2022/10/23 00:38:05;;;;;;;24.37;18.57;;;;;;;12.14;74.99;99833.38;5073407;28;20251;-69
2022/10/23 00:40:33;;;;;;;32.47;19.33;;;;;;;12.19;74.98;99820.28;5073205;28;20246;-69
2022/10/23 00:43:00;;;;;;;24.70;19.23;;;;;;;12.19;74.68;99828.25;5073726;28;20635;-69
2022/10/23 00:45:30;;;;;;;31.87;19.37;;;;;;;12.09;74.60;99827.78;5072875;28;20195;-69
2022/10/23 00:47:57;;;;;;;23.70;18.23;;;;;;;12.09;74.87;99829.66;5073017;28;20230;-69
2022/10/23 00:50:27;;;;;;;27.83;19.10;;;;;;;12.08;75.14;99830.69;5072825;28;20198;-69
2022/10/23 00:52:55;;;;;;;24.50;18.13;;;;;;;12.07;75.70;99816.53;5073153;28;20198;-68
2022/10/23 00:55:24;;;;;;;31.00;19.70;;;;;;;12.08;75.89;99823.50;5072706;28;20203;-69
2022/10/23 00:57:53;;;;;;;30.77;20.73;;;;;;;11.99;76.15;99827.34;5073065;28;20191;-69
2022/10/23 01:00:23;;;;;;;33.03;19.47;;;;;;;11.91;75.78;99830.16;5072594;28;20665;-68
2022/10/23 01:02:50;;;;;;;30.37;19.77;;;;;;;11.91;76.34;99832.00;5072878;28;20217;-68
2022/10/23 01:05:18;;;;;;;29.67;19.33;;;;;;;11.93;76.88;99836.13;5073578;28;20190;-68
2022/10/23 01:07:52;;;;;;;24.97;18.77;;;;;;;11.90;76.79;99809.06;5072590;28;20274;-68
2022/10/23 01:10:29;;;;;;;27.23;19.13;;;;;;;12.06;76.24;99830.03;5072464;28;20182;-68
2022/10/23 01:13:03;;;;;;;29.83;19.97;;;;;;;12.00;76.30;99821.00;5073094;28;20247;-68
2022/10/23 01:15:37;;;;;;;28.97;20.00;;;;;;;11.93;76.47;99825.47;5073052;28;20185;-68
2022/10/23 01:18:11;;;;;;;29.50;20.60;;;;;;;11.85;76.58;99820.31;5073010;28;20180;-69
2022/10/23 01:20:43;;;;;;;28.60;20.23;;;;;;;11.88;76.71;99822.56;5072288;28;20183;-69
2022/10/23 01:23:36;;;;;;;33.20;20.17;;;;;;;11.88;76.48;99832.41;5072708;28;20185;-69
2022/10/23 01:26:15;;;;;;;24.60;19.67;;;;;;;11.93;76.58;99838.78;5072788;28;20188;-70
2022/10/23 01:28:49;;;;;;;30.80;21.67;;;;;;;11.96;76.27;99845.56;5072622;28;20614;-69
2022/10/23 01:31:22;;;;;;;44.43;20.57;;;;;;;11.96;76.07;99834.91;5072360;28;20205;-69
2022/10/23 01:33:55;;;;;;;33.77;20.83;;;;;;;11.89;76.41;99818.06;5072263;28;20243;-69
2022/10/23 01:36:25;;;;;;;27.37;19.63;;;;;;;11.98;76.18;99807.06;5072086;28;20712;-69
2022/10/23 01:38:57;;;;;;;26.93;20.60;;;;;;;12.03;76.01;99814.44;5072777;28;20191;-68
2022/10/23 01:41:29;;;;;;;28.93;20.27;;;;;;;12.00;75.97;99823.66;5071875;28;20246;-68
2022/10/23 01:44:04;;;;;;;27.73;20.57;;;;;;;12.03;76.07;99814.44;5072505;28;20194;-69
2022/10/23 01:46:34;;;;;;;25.40;19.87;;;;;;;12.04;76.18;99821.44;5072055;28;20663;-68
2022/10/23 01:49:03;;;;;;;28.40;20.03;;;;;;;11.96;76.24;99817.06;5072300;28;20194;-69
2022/10/23 01:51:31;;;;;;;31.57;19.50;;;;;;;11.95;76.26;99815.44;5071843;28;20748;-68
2022/10/23 01:54:01;;;;;;;27.60;20.23;;;;;;;11.99;75.87;99813.19;5072264;28;20274;-69
2022/10/23 01:56:32;;;;;;;37.07;19.73;;;;;;;12.04;75.93;99811.59;5072117;28;20275;-69
2022/10/23 01:59:05;;;;;;;31.40;19.13;;;;;;;12.02;75.80;99808.31;5073030;28;20252;-69
2022/10/23 02:01:34;;;;;;;25.50;17.80;;;;;;;11.94;75.84;99811.16;5072064;28;20264;-69
2022/10/23 02:04:06;;;;;;;25.23;18.70;;;;;;;11.85;76.31;99801.69;5071846;28;20245;-68
2022/10/23 02:06:32;;;;;;;26.03;18.20;;;;;;;11.73;76.77;99799.75;5072295;28;20224;-68
2022/10/23 02:08:59;;;;;;;28.33;18.53;;;;;;;11.68;77.21;99812.81;5072043;28;20252;-68
2022/10/23 02:11:26;;;;;;;31.67;18.70;;;;;;;11.70;77.17;99808.94;5071426;28;20233;-69
2022/10/23 02:13:59;;;;;;;30.57;19.97;;;;;;;11.80;77.21;99814.72;5071716;28;20674;-69
2022/10/23 02:16:37;;;;;;;31.63;18.37;;;;;;;11.68;77.06;99803.00;5071676;28;20231;-69
2022/10/23 02:19:12;;;;;;;23.17;17.07;;;;;;;11.69;77.76;99809.97;5071687;28;20212;-69
2022/10/23 02:21:48;;;;;;;24.27;17.37;;;;;;;11.68;78.02;99810.97;5072181;28;20205;-69
2022/10/23 02:24:20;;;;;;;22.33;17.03;;;;;;;11.63;77.92;99818.72;5071732;28;20235;-68
2022/10/23 02:26:52;;;;;;;21.47;16.40;;;;;;;11.74;77.95;99812.88;5071736;28;20189;-69
2022/10/23 02:29:26;;;;;;;23.77;16.93;;;;;;;11.81;77.58;99819.06;5060678;28;20226;-69
2022/10/23 02:31:54;;;;;;;22.83;17.07;;;;;;;11.88;77.84;99827.88;5068045;28;20203;-69
2022/10/23 02:34:20;;;;;;;23.43;16.53;;;;;;;11.93;77.64;99836.13;5071726;28;20194;-68
2022/10/23 02:36:47;;;;;;;29.63;17.13;;;;;;;11.92;77.13;99839.78;5071651;28;20251;-68
2022/10/23 02:39:14;;;;;;;25.13;15.80;;;;;;;11.77;77.12;99840.94;5071462;28;20666;-68
2022/10/23 02:41:47;;;;;;;22.70;17.67;;;;;;;11.66;77.22;99833.47;5071694;28;20222;-69
2022/10/23 02:44:25;;;;;;;25.17;18.23;;;;;;;11.57;77.53;99830.13;5071446;28;20191;-69
2022/10/23 02:47:09;;;;;;;25.97;17.90;;;;;;;11.48;77.69;99841.94;5071412;28;20208;-68
2022/10/23 02:49:44;;;;;;;27.73;19.07;;;;;;;11.38;77.52;99844.09;5072587;28;20244;-69
2022/10/23 02:52:17;;;;;;;25.03;18.50;;;;;;;11.45;77.94;99855.59;5071386;28;20186;-68
2022/10/23 02:55:06;;;;;;;26.57;17.40;;;;;;;11.56;77.91;99856.91;5071875;28;20190;-68
2022/10/23 02:57:37;;;;;;;25.73;17.70;;;;;;;11.57;77.48;99851.41;5074916;28;20263;-69
2022/10/23 03:00:07;;;;;;;28.90;18.20;;;;;;;11.48;77.52;99841.09;5075098;28;20243;-68
2022/10/23 03:02:40;;;;;;;27.83;17.87;;;;;;;11.50;77.51;99852.34;5075170;28;20209;-68
2022/10/23 03:05:11;;;;;;;25.07;17.07;;;;;;;11.52;77.71;99848.50;5075858;28;20188;-68
2022/10/23 03:07:39;;;;;;;28.77;17.80;;;;;;;11.62;77.86;99859.66;5075115;28;20205;-68
2022/10/23 03:10:07;;;;;;;25.60;17.97;;;;;;;11.69;77.89;99859.69;5075423;28;20188;-68
2022/10/23 03:12:34;;;;;;;19.20;15.50;;;;;;;11.71;77.85;99858.50;5074845;28;20229;-68
2022/10/23 03:15:01;;;;;;;25.23;16.97;;;;;;;11.73;78.11;99845.00;5074733;28;20194;-68
2022/10/23 03:17:28;;;;;;;19.30;14.47;;;;;;;11.80;77.72;99848.53;5075173;28;20359;-68
2022/10/23 03:19:56;;;;;;;26.63;14.63;;;;;;;11.86;77.49;99845.06;5075710;28;20194;-68
2022/10/23 03:22:22;;;;;;;20.40;14.37;;;;;;;11.92;77.38;99845.09;5074498;28;20237;-68
2022/10/23 03:24:49;;;;;;;20.37;13.17;;;;;;;11.93;76.72;99851.25;5074883;28;20247;-69
2022/10/23 03:27:16;;;;;;;17.70;13.83;;;;;;;11.98;76.42;99860.31;5074741;28;20255;-69
2022/10/23 03:29:42;;;;;;;18.60;14.37;;;;;;;11.98;76.21;99857.66;5074775;28;20252;-68
2022/10/23 03:32:09;;;;;;;17.83;14.00;;;;;;;11.93;76.40;99844.13;5074797;28;20197;-69
2022/10/23 03:34:36;;;;;;;19.37;13.50;;;;;;;12.03;76.06;99857.03;5075162;28;20262;-70
2022/10/23 03:37:04;;;;;;;21.53;14.67;;;;;;;12.08;76.46;99860.75;5073444;28;20272;-69
2022/10/23 03:39:31;;;;;;;29.13;14.17;;;;;;;12.13;76.14;99852.19;5075111;28;20195;-69
2022/10/23 03:41:58;;;;;;;14.37;12.87;;;;;;;12.36;75.59;99879.34;5074148;28;20285;-70
2022/10/23 03:44:24;;;;;;;15.40;13.13;;;;;;;12.42;75.36;99884.69;5074519;28;20269;-69
2022/10/23 03:46:51;;;;;;;17.33;12.67;;;;;;;12.46;75.17;99875.28;5075230;28;20243;-70
2022/10/23 03:49:18;;;;;;;13.43;12.03;;;;;;;12.58;74.93;99862.25;5074403;28;20190;-70
2022/10/23 03:51:50;;;;;;;14.10;12.53;;;;;;;12.61;74.56;99862.66;5073976;28;20198;-69
2022/10/23 03:54:19;;;;;;;15.43;11.97;;;;;;;12.53;74.45;99854.81;5074121;28;20677;-70
2022/10/23 03:56:46;;;;;;;18.30;12.47;;;;;;;12.55;74.33;99852.81;5073920;28;20626;-70
2022/10/23 03:59:13;;;;;;;15.60;11.83;;;;;;;12.63;74.50;99865.94;5074061;28;20226;-70
2022/10/23 04:01:39;;;;;;;15.67;12.73;;;;;;;12.79;73.93;99875.44;5073692;28;20676;-69
2022/10/23 04:04:06;;;;;;;15.23;12.77;;;;;;;12.94;73.68;99876.09;5074940;28;20254;-70
2022/10/23 04:06:33;;;;;;;18.50;12.77;;;;;;;12.98;73.33;99875.50;5074171;28;20216;-70
2022/10/23 04:08:59;;;;;;;14.83;11.87;;;;;;;12.98;73.02;99875.50;5073734;28;20192;-68
2022/10/23 04:11:27;;;;;;;24.13;12.80;;;;;;;12.92;73.34;99868.28;5073967;28;20275;-69
2022/10/23 04:13:54;;;;;;;15.60;11.93;;;;;;;12.89;73.23;99871.34;5073647;28;20609;-69
2022/10/23 04:16:21;;;;;;;17.13;12.20;;;;;;;12.92;73.41;99878.94;5073936;28;20198;-68
2022/10/23 04:18:47;;;;;;;16.87;12.03;;;;;;;12.83;73.21;99871.34;5073854;28;20331;-69
2022/10/23 04:21:14;;;;;;;16.27;12.00;;;;;;;12.88;73.47;99885.72;5073504;28;20731;-69
2022/10/23 04:23:41;;;;;;;16.03;12.30;;;;;;;12.95;73.33;99881.19;5073662;28;20227;-69
2022/10/23 04:26:08;;;;;;;15.93;11.47;;;;;;;12.99;73.44;99866.47;5073516;28;20579;-68
2022/10/23 04:28:36;;;;;;;13.40;11.63;;;;;;;13.06;73.00;99888.66;5073220;28;20192;-68
2022/10/23 04:31:03;;;;;;;15.43;11.07;;;;;;;13.12;72.95;99882.53;5073595;28;20196;-68
2022/10/23 04:33:29;;;;;;;24.90;13.97;;;;;;;13.17;72.94;99877.38;5073511;28;20203;-68
2022/10/23 04:35:56;;;;;;;22.03;12.67;;;;;;;13.18;72.88;99884.34;5073276;28;20196;-68
2022/10/23 04:38:23;;;;;;;15.70;11.87;;;;;;;13.21;72.74;99883.97;5073094;28;20683;-67
2022/10/23 04:40:49;;;;;;;16.77;11.10;;;;;;;13.26;72.63;99884.16;5073163;28;20566;-68
2022/10/23 04:43:16;;;;;;;12.27;10.97;;;;;;;13.31;72.55;99875.56;5073222;28;20223;-68
2022/10/23 04:45:44;;;;;;;12.20;10.23;;;;;;;13.28;72.36;99865.28;5072986;28;20258;-70
2022/10/23 04:48:11;;;;;;;12.40;9.17;;;;;;;13.30;72.19;99872.06;5073168;28;20194;-68
2022/10/23 04:50:37;;;;;;;11.50;7.67;;;;;;;13.33;71.81;99871.66;5072931;28;20199;-68
2022/10/23 04:53:04;;;;;;;8.93;7.53;;;;;;;13.47;71.60;99870.63;5072731;28;20667;-68
2022/10/23 04:55:31;;;;;;;9.10;7.87;;;;;;;13.59;71.22;99879.66;5073285;28;20265;-68
2022/10/23 04:57:57;;;;;;;18.70;6.60;;;;;;;13.67;70.33;99878.63;5073026;28;20249;-69
2022/10/23 05:00:24;;;;;;;16.73;7.70;;;;;;;13.79;70.12;99880.47;5073048;28;20192;-68
2022/10/23 05:02:52;;;;;;;11.23;6.40;;;;;;;13.88;69.16;99887.25;5072934;28;20312;-68
2022/10/23 05:05:19;;;;;;;7.60;6.80;;;;;;;14.07;68.95;99902.44;5072578;28;20656;-69
2022/10/23 05:07:45;;;;;;;13.80;6.50;;;;;;;14.19;68.20;99903.44;5072709;28;20224;-69
2022/10/23 05:10:12;;;;;;;12.47;5.87;;;;;;;14.28;67.98;99912.06;5072508;28;20257;-69
2022/10/23 05:12:39;;;;;;;15.17;6.60;;;;;;;14.38;67.11;99902.56;5072662;28;20228;-69
2022/10/23 05:15:07;;;;;;;9.53;6.43;;;;;;;14.55;67.38;99913.63;5072408;28;20617;-68
2022/10/23 05:17:37;;;;;;;8.70;6.30;;;;;;;14.77;65.79;99909.63;5072261;28;20200;-68
2022/10/23 05:20:11;;;;;;;8.37;5.80;;;;;;;15.03;64.92;99910.31;5069131;28;20242;-68
2022/10/23 05:22:41;;;;;;;17.73;6.37;;;;;;;15.26;64.59;99907.91;5072543;28;20261;-67
2022/10/23 05:25:09;;;;;;;9.37;5.33;;;;;;;15.48;62.67;99914.59;5072139;28;20739;-68
2022/10/23 05:27:36;;;;;;;12.37;5.83;;;;;;;15.72;61.78;99921.81;5072779;28;20200;-68
2022/10/23 05:30:03;;;;;;;16.17;6.93;;;;;;;16.02;60.81;99921.97;5072355;28;20188;-65
2022/10/23 05:32:32;;;;;;;11.73;6.13;;;;;;;16.44;59.65;99928.38;5072411;28;20199;-68
2022/10/23 05:35:01;;;;;;;10.60;5.87;;;;;;;16.90;56.96;99936.72;5072396;28;20196;-67
2022/10/23 05:37:29;;;;;;;14.23;6.17;;;;;;;17.30;54.71;99935.13;5072302;28;20200;-67
2022/10/23 05:39:56;;;;;;;10.90;5.33;;;;;;;17.66;53.65;99949.28;5072022;28;20192;-66
2022/10/23 05:42:23;;;;;;;10.03;5.77;;;;;;;17.95;52.07;99939.50;5071898;28;20223;-67
2022/10/23 05:44:50;;;;;;;11.03;5.40;;;;;;;18.33;52.31;99942.56;5071806;28;20658;-64
2022/10/23 05:47:16;;;;;;;11.57;5.50;;;;;;;18.61;49.33;99956.94;5070122;28;20261;-64
2022/10/23 05:49:43;;;;;;;15.13;5.73;;;;;;;18.96;48.05;99955.00;5052382;28;20262;-65
2022/10/23 05:52:11;;;;;;;7.33;4.67;;;;;;;19.41;50.14;99955.91;5050443;28;20680;-67
2022/10/23 05:54:39;;;;;;;8.53;5.23;;;;;;;19.81;46.17;99964.69;5051820;28;20267;-64
2022/10/23 05:57:05;;;;;;;10.50;4.63;;;;;;;20.10;44.07;99958.19;5051783;28;20202;-65
2022/10/23 05:59:32;;;;;;;13.33;5.23;;;;;;;20.29;43.48;99956.03;5050758;28;20196;-64
2022/10/23 06:01:59;;;;;;;9.30;4.40;;;;;;;20.58;42.46;99962.94;5052186;28;20254;-65
2022/10/23 06:04:25;;;;;;;7.70;4.93;;;;;;;20.92;45.70;99951.00;5051526;28;20228;-64
2022/10/23 06:06:52;;;;;;;11.57;4.33;;;;;;;21.19;40.26;99965.34;5051721;28;20578;-63
2022/10/23 06:09:19;;;;;;;12.30;4.97;;;;;;;21.44;39.69;99970.22;5051619;28;20621;-64
2022/10/23 06:11:47;;;;;;;13.60;5.23;;;;;;;21.72;38.65;99962.69;5052196;28;20228;-65
2022/10/23 06:14:13;;;;;;;12.27;5.07;;;;;;;22.00;38.43;99965.09;5051870;28;20205;-64
2022/10/23 06:16:40;;;;;;;11.87;5.47;;;;;;;22.19;37.93;99970.94;5051954;28;20192;-64
2022/10/23 06:19:10;;;;;;;11.43;5.03;;;;;;;22.34;37.63;99971.03;5051441;28;20660;-71
2022/10/23 06:21:37;;;;;;;8.43;4.50;;;;;;;22.33;37.64;99964.81;5051568;28;20196;-69
2022/10/23 06:24:04;;;;;;;13.00;4.83;;;;;;;22.58;36.91;99962.28;5051910;28;20278;-70
2022/10/23 06:26:30;;;;;;;16.93;4.87;;;;;;;22.75;36.44;99976.47;5055540;28;20193;-70
2022/10/23 06:28:59;;;;;;;8.47;5.00;;;;;;;22.76;35.97;99975.41;5061787;28;20189;-71
2022/10/23 06:31:27;;;;;;;14.03;4.73;;;;;;;22.95;35.85;99983.88;5067219;28;20320;-72
2022/10/23 06:33:53;;;;;;;9.13;4.90;;;;;;;23.01;35.57;99978.22;5075721;28;20600;-71
2022/10/23 06:36:20;;;;;;;21.27;5.60;;;;;;;23.03;35.30;99986.88;5075733;28;20737;-69
2022/10/23 06:38:48;;;;;;;13.30;5.50;;;;;;;23.15;35.08;99989.41;5075624;28;20253;-71
2022/10/23 06:41:16;;;;;;;19.37;5.37;;;;;;;23.27;35.14;99996.22;5076263;28;20220;-72
2022/10/23 06:43:43;;;;;;;32.33;6.27;;;;;;;23.54;35.70;100005.00;5074502;28;20848;-71
2022/10/23 06:46:11;;;;;;;14.17;5.10;;;;;;;23.54;34.37;100021.28;5074436;28;20734;-72
2022/10/23 06:48:38;;;;;;;14.97;5.27;;;;;;;23.66;34.62;100027.28;5065715;28;20189;-69
2022/10/23 06:51:06;;;;;;;19.27;5.67;;;;;;;23.79;34.12;100024.03;5064414;28;20252;-73
2022/10/23 06:53:33;;;;;;;10.67;5.17;;;;;;;23.87;34.01;100031.66;5063805;28;20189;-66
2022/10/23 06:56:00;;;;;;;27.57;6.50;;;;;;;23.98;34.34;100033.31;5064701;28;20202;-68
2022/10/23 06:58:27;;;;;;;15.43;5.57;;;;;;;24.09;34.24;100031.44;5061383;28;20251;-70
2022/10/23 07:00:54;;;;;;;11.40;5.50;;;;;;;24.29;33.86;100024.09;5058979;28;20194;-67
2022/10/23 07:03:22;;;;;;;28.50;6.73;;;;;;;24.45;33.81;100031.16;5062990;28;20217;-69
2022/10/23 07:05:49;;;;;;;15.93;5.53;;;;;;;24.53;34.10;100044.19;5065204;28;20199;-69
2022/10/23 07:08:16;;;;;;;21.03;6.20;;;;;;;24.60;34.05;100042.03;5063996;28;20196;-68
2022/10/23 07:10:42;;;;;;;11.43;5.30;;;;;;;24.71;34.19;100054.50;5064092;28;20198;-68
2022/10/23 07:13:09;;;;;;;11.67;5.37;;;;;;;25.01;34.03;100050.91;5065640;28;20244;-69
2022/10/23 07:15:36;;;;;;;15.97;5.80;;;;;;;25.08;34.01;100044.09;5063839;28;20245;-70
2022/10/23 07:18:03;;;;;;;12.40;5.83;;;;;;;25.26;33.45;100039.13;5064014;28;20197;-69
2022/10/23 07:20:35;;;;;;;17.77;6.60;;;;;;;25.34;33.83;100046.72;5064612;28;20690;-69
2022/10/23 07:23:01;;;;;;;12.87;5.97;;;;;;;25.52;33.35;100051.56;5064298;28;20263;-69
2022/10/23 07:25:28;;;;;;;17.03;5.63;;;;;;;25.57;34.08;100046.09;5064200;28;20619;-69
2022/10/23 07:27:55;;;;;;;9.97;5.70;;;;;;;25.35;33.81;100038.28;5064794;28;20199;-69
2022/10/23 07:30:23;;;;;;;14.17;5.40;;;;;;;25.44;33.51;100052.16;5065279;28;20190;-69
2022/10/23 07:32:52;;;;;;;24.60;6.70;;;;;;;25.40;33.64;100051.06;5063049;28;20197;-69
2022/10/23 07:35:19;;;;;;;20.73;6.17;;;;;;;25.21;33.96;100050.84;5063946;28;20198;-69
2022/10/23 07:37:47;;;;;;;18.77;5.70;;;;;;;25.40;34.34;100038.31;5065235;28;20281;-71
2022/10/23 07:40:14;;;;;;;30.77;6.17;;;;;;;25.32;34.72;100040.78;5053522;28;20196;-70
2022/10/23 07:42:41;;;;;;;19.70;6.23;;;;;;;25.32;34.31;100043.50;5053917;28;20199;-71
2022/10/23 07:45:08;;;;;;;20.23;5.47;;;;;;;25.29;34.29;100044.03;5053898;28;20200;-70
2022/10/23 07:47:35;;;;;;;28.70;5.60;;;;;;;25.37;34.73;100038.03;5053976;28;20212;-69
2022/10/23 07:50:02;;;;;;;27.80;6.87;;;;;;;25.28;34.85;100042.41;5053117;28;20192;-72
2022/10/23 07:52:29;;;;;;;46.93;6.60;;;;;;;25.31;34.85;100052.75;5053683;28;20192;-72
2022/10/23 07:54:57;;;;;;;20.60;5.47;;;;;;;25.26;35.25;100052.72;5053436;28;20257;-69
2022/10/23 07:57:23;;;;;;;13.63;4.90;;;;;;;25.40;35.30;100046.47;5061947;28;20208;-68
2022/10/23 07:59:50;;;;;;;16.77;5.10;;;;;;;25.51;34.90;100048.00;5073438;28;20188;-68
2022/10/23 08:02:17;;;;;;;18.90;5.30;;;;;;;25.37;35.54;100047.00;5073708;28;20250;-69
2022/10/23 08:04:44;;;;;;;12.00;5.17;;;;;;;25.68;35.07;100045.75;5073174;28;20230;-68
2022/10/23 08:07:10;;;;;;;27.97;5.50;;;;;;;25.72;34.87;100035.13;5073017;28;20192;-70
2022/10/23 08:09:37;;;;;;;18.67;5.67;;;;;;;26.04;34.83;100046.38;5073190;28;20725;-71
2022/10/23 08:12:06;;;;;;;20.80;5.23;;;;;;;26.01;35.20;100045.00;5074113;28;20287;-67
2022/10/23 08:14:33;;;;;;;12.93;4.70;;;;;;;25.82;35.90;100044.03;5073594;28;20203;-69
2022/10/23 08:16:59;;;;;;;21.87;4.97;;;;;;;25.90;36.22;100045.34;5073644;28;20261;-70
2022/10/23 08:19:26;;;;;;;11.57;4.10;;;;;;;25.97;35.63;100035.78;5073281;28;20192;-72
2022/10/23 08:21:56;;;;;;;38.33;6.53;;;;;;;26.02;35.63;100043.94;5073397;28;20566;-70
2022/10/23 08:24:23;;;;;;;39.60;5.93;;;;;;;26.04;35.50;100035.50;5073891;28;20307;-68
2022/10/23 08:26:50;;;;;;;21.13;4.93;;;;;;;26.34;35.73;100036.03;5073121;28;20749;-69
2022/10/23 08:29:18;;;;;;;114.87;10.13;;;;;;;26.37;36.16;100034.69;5073753;28;20264;-70
2022/10/23 08:31:45;;;;;;;81.53;7.57;;;;;;;26.31;36.54;100033.91;5072362;28;20261;-67
2022/10/23 08:34:12;;;;;;;50.90;5.60;;;;;;;26.16;36.82;100033.19;5073013;28;20729;-68
2022/10/23 08:36:39;;;;;;;17.10;4.63;;;;;;;26.10;36.40;100031.63;5073357;28;20192;-67
2022/10/23 08:39:06;;;;;;;26.07;4.83;;;;;;;26.27;36.47;100026.56;5073017;28;20191;-67
2022/10/23 08:41:37;;;;;;;36.40;5.00;;;;;;;26.49;36.85;100032.34;5073252;28;20253;-67
2022/10/23 08:44:14;;;;;;;183.03;14.97;;;;;;;26.35;37.24;100036.84;5072939;28;20265;-67
2022/10/23 08:46:47;;;;;;;27.83;3.80;;;;;;;26.29;37.75;100030.63;5073185;28;20249;-67
2022/10/23 08:49:26;;;;;;;11.73;3.40;;;;;;;26.59;37.41;100024.13;5072768;28;20210;-67
2022/10/23 08:51:55;;;;;;;15.67;3.37;;;;;;;26.84;36.95;100024.69;5072616;28;20710;-67
2022/10/23 08:54:26;;;;;;;15.87;3.50;;;;;;;26.71;36.87;100027.28;5071718;28;20659;-67
2022/10/23 08:56:59;;;;;;;15.43;3.67;;;;;;;26.29;37.71;100027.91;5071918;28;20192;-65
2022/10/23 08:59:31;;;;;;;102.23;7.50;;;;;;;26.54;37.89;100018.72;5073038;28;20634;-65
2022/10/23 09:02:02;;;;;;;29.03;4.40;;;;;;;26.61;37.33;100032.81;5072405;28;20623;-67
2022/10/23 09:04:29;;;;;;;59.43;6.03;;;;;;;26.51;38.04;100019.28;5072962;28;20269;-66
2022/10/23 09:07:05;;;;;;;8.93;2.73;;;;;;;26.64;37.40;100013.19;5072415;28;20253;-66
2022/10/23 09:09:49;;;;;;;30.63;4.07;;;;;;;26.72;37.37;100026.19;5073140;28;20183;-66
2022/10/23 09:12:20;;;;;;;9.03;2.40;;;;;;;27.02;36.94;100017.66;5073044;28;20227;-66
2022/10/23 09:15:08;;;;;;;57.53;4.67;;;;;;;26.96;35.79;100016.09;5073409;28;20277;-66
2022/10/23 09:17:39;;;;;;;12.17;2.57;;;;;;;27.20;36.55;100019.66;5072340;28;20187;-66
2022/10/23 09:20:19;;;;;;;31.73;3.57;;;;;;;27.34;35.44;100023.28;5072173;28;20233;-66
2022/10/23 09:22:47;;;;;;;37.53;4.07;;;;;;;27.25;35.79;100030.50;5072142;28;20651;-66
2022/10/23 09:25:19;;;;;;;66.30;5.23;;;;;;;27.49;34.72;100036.75;5072883;28;20277;-65
2022/10/23 09:27:52;;;;;;;30.97;3.40;;;;;;;27.37;34.94;100036.38;5072123;28;20273;-65
2022/10/23 09:30:28;;;;;;;60.90;4.93;;;;;;;27.41;34.50;100031.94;5056158;28;20671;-66
2022/10/23 09:32:56;;;;;;;6.23;1.50;;;;;;;27.47;34.79;100033.50;5072446;28;20196;-65
2022/10/23 09:35:25;;;;;;;5.93;1.90;;;;;;;27.60;34.86;100038.25;5072242;28;20192;-66
2022/10/23 09:37:53;;;;;;;5.43;2.03;;;;;;;27.48;34.61;100021.50;5072610;28;20196;-65
2022/10/23 09:40:29;;;;;;;15.83;2.53;;;;;;;27.11;34.79;100026.84;5072520;28;20188;-66
2022/10/23 09:42:58;;;;;;;8.43;1.83;;;;;;;27.00;35.35;100022.59;5072733;28;20249;-66
2022/10/23 09:45:28;;;;;;;8.90;2.10;;;;;;;27.19;35.13;100009.84;5071661;28;20348;-66
2022/10/23 09:48:17;;;;;;;6.10;2.20;;;;;;;27.29;35.11;100020.63;5072174;28;20363;-66
2022/10/23 09:50:53;;;;;;;4.07;2.30;;;;;;;27.19;34.72;100013.34;5072320;28;20188;-67
2022/10/23 09:53:26;;;;;;;5.63;1.70;;;;;;;27.36;34.78;100018.38;5068560;28;20253;-66
2022/10/23 09:55:55;;;;;;;4.07;2.10;;;;;;;27.50;34.75;100019.25;5066208;28;20237;-66
2022/10/23 09:58:29;;;;;;;7.30;1.90;;;;;;;27.63;34.03;100011.16;5061193;28;20541;-69
2022/10/23 10:00:56;;;;;;;31.93;3.40;;;;;;;27.43;34.65;100011.44;5059746;28;20263;-69
2022/10/23 10:03:25;;;;;;;6.33;1.90;;;;;;;27.55;34.38;100011.00;5052535;28;20732;-71
2022/10/23 10:05:57;;;;;;;4.77;2.37;;;;;;;27.50;35.01;99995.53;5065408;28;20187;-71
2022/10/23 10:08:32;;;;;;;5.37;2.40;;;;;;;27.74;34.56;99990.81;5071664;28;20572;-72
2022/10/23 10:11:02;;;;;;;11.60;3.87;;;;;;;27.39;34.32;99993.19;5071712;28;20231;-71
2022/10/23 10:13:47;;;;;;;19.60;3.47;;;;;;;27.45;34.35;99983.84;5072279;28;20192;-71
2022/10/23 10:16:25;;;;;;;6.43;5.53;;;;;;;27.56;34.64;99993.53;5072512;28;20634;-72
2022/10/23 10:19:02;;;;;;;9.90;7.17;;;;;;;27.66;34.78;99979.72;5071865;28;20274;-71
2022/10/23 10:21:34;;;;;;;6.90;3.80;;;;;;;27.64;33.95;99979.22;5072133;28;20187;-71
2022/10/23 10:24:08;;;;;;;6.30;3.00;;;;;;;27.87;32.91;99978.34;5071779;28;20265;-71
2022/10/23 10:26:40;;;;;;;3.47;2.60;;;;;;;28.03;32.78;99976.97;5071687;28;20558;-76
2022/10/23 10:29:16;;;;;;;10.13;2.97;;;;;;;28.04;32.13;99984.06;5072547;28;20184;-76
2022/10/23 10:31:52;;;;;;;8.60;3.03;;;;;;;27.87;31.58;99975.59;5071952;28;20191;-75
2022/10/23 10:34:29;;;;;;;11.40;3.27;;;;;;;27.79;31.82;99965.31;5070782;28;20274;-75
2022/10/23 10:37:01;;;;;;;42.57;6.13;;;;;;;27.95;32.23;99970.28;5071666;28;20259;-75
2022/10/23 10:39:39;;;;;;;6.20;5.47;;;;;;;28.11;32.10;99965.38;5060833;28;20246;-77
2022/10/23 10:42:23;;;;;;;9.40;5.93;;;;;;;28.19;32.42;99967.41;5051972;28;20185;-76
2022/10/23 10:45:18;;;;;;;4.83;3.30;;;;;;;28.42;31.82;99974.69;5060333;28;20545;-78
2022/10/23 10:47:57;;;;;;;8.93;5.50;;;;;;;28.25;30.54;99952.53;5051447;28;20185;-76
2022/10/23 10:50:29;;;;;;;5.10;3.23;;;;;;;28.28;30.80;99952.78;5051962;28;20707;-75
2022/10/23 10:53:04;;;;;;;11.77;3.40;;;;;;;28.38;29.58;99957.25;5051778;28;20247;-78
2022/10/23 10:55:37;;;;;;;6.60;3.33;;;;;;;28.29;30.69;99948.09;5051630;28;20212;-73
2022/10/23 10:58:12;;;;;;;8.83;4.67;;;;;;;28.47;31.92;99939.84;5051746;28;20190;-73
2022/10/23 11:00:39;;;;;;;9.77;2.60;;;;;;;28.49;28.87;99936.81;5051688;28;20258;-74
2022/10/23 11:03:19;;;;;;;14.33;4.00;;;;;;;28.51;28.94;99945.56;5051487;28;20192;-72
2022/10/23 11:05:49;;;;;;;3.43;3.13;;;;;;;28.61;29.26;99939.88;5051309;28;20710;-74
2022/10/23 11:08:21;;;;;;;7.17;2.47;;;;;;;28.70;28.87;99938.06;5051002;28;20714;-68
2022/10/23 11:10:53;;;;;;;6.40;2.10;;;;;;;28.69;28.52;99939.16;5058299;28;20596;-68
2022/10/23 11:13:27;;;;;;;3.57;2.00;;;;;;;28.51;28.27;99934.63;5071467;28;20249;-68
2022/10/23 11:15:59;;;;;;;5.50;3.20;;;;;;;28.61;28.59;99951.63;5071230;28;20211;-70
2022/10/23 11:18:28;;;;;;;12.73;2.30;;;;;;;28.53;28.63;99941.41;5074665;28;20184;-68
2022/10/23 11:21:07;;;;;;;7.90;1.87;;;;;;;28.61;28.59;99937.16;5073705;28;20249;-68
2022/10/23 11:23:53;;;;;;;1.80;1.70;;;;;;;28.68;27.91;99921.97;5072403;28;20237;-68
2022/10/23 11:26:35;;;;;;;7.37;1.80;;;;;;;28.76;28.25;99931.38;5074458;28;20230;-68
2022/10/23 11:29:28;;;;;;;5.87;2.07;;;;;;;28.67;28.79;99927.75;5069243;28;20247;-66
2022/10/23 11:32:11;;;;;;;6.17;2.37;;;;;;;28.45;28.58;99930.34;5056516;28;20262;-66
2022/10/23 11:35:06;;;;;;;3.63;2.03;;;;;;;28.43;28.89;99916.97;5064604;28;20573;-66